createdAt,value
2022-10-24T00:01:51.509Z,3.80
2022-10-24T00:04:21.420Z,3.70
2022-10-24T00:06:51.202Z,3.93
2022-10-24T00:09:20.885Z,2.93
2022-10-24T00:11:50.689Z,2.70
2022-10-24T00:14:20.495Z,3.30
2022-10-24T00:16:50.312Z,3.63
2022-10-24T00:19:20.271Z,3.42
2022-10-24T00:21:49.957Z,3.97
2022-10-24T00:24:20.039Z,2.60
2022-10-24T00:26:49.839Z,3.13
2022-10-24T00:29:19.805Z,3.30
2022-10-24T00:31:49.683Z,3.80
2022-10-24T00:34:19.541Z,2.22
2022-10-24T00:36:49.413Z,3.50
2022-10-24T00:39:19.204Z,3.57
2022-10-24T00:41:49.081Z,3.73
2022-10-24T00:44:24.927Z,3.47
2022-10-24T00:46:57.924Z,4.00
2022-10-24T00:49:33.695Z,3.70
2022-10-24T00:52:06.538Z,4.10
2022-10-24T00:54:38.465Z,3.20
2022-10-24T00:57:29.103Z,3.13
2022-10-24T01:00:01.725Z,3.27
2022-10-24T01:02:31.529Z,3.87
2022-10-24T01:05:02.954Z,4.30
2022-10-24T01:07:52.102Z,4.03
2022-10-24T01:10:24.723Z,3.83
2022-10-24T01:13:00.088Z,4.37
2022-10-24T01:15:49.466Z,3.50
2022-10-24T01:18:25.067Z,3.67
2022-10-24T01:21:02.965Z,4.13
2022-10-24T01:23:54.940Z,4.63
2022-10-24T01:26:39.919Z,4.03
2022-10-24T01:29:23.124Z,4.17
2022-10-24T01:31:56.013Z,3.67
2022-10-24T01:34:28.846Z,3.83
2022-10-24T01:37:07.396Z,3.87
2022-10-24T01:39:42.971Z,3.70
2022-10-24T01:42:15.437Z,3.70
2022-10-24T01:44:48.255Z,4.87
2022-10-24T01:47:21.488Z,3.75
2022-10-24T01:49:54.313Z,4.67
2022-10-24T01:52:26.607Z,4.30
2022-10-24T01:54:56.456Z,3.90
2022-10-24T01:57:34.884Z,4.50
2022-10-24T02:00:07.701Z,4.57
2022-10-24T02:02:45.864Z,4.50
2022-10-24T02:05:22.017Z,3.87
2022-10-24T02:07:54.863Z,4.37
2022-10-24T02:10:27.606Z,3.77
2022-10-24T02:13:00.438Z,3.73
2022-10-24T02:15:33.303Z,3.47
2022-10-24T02:18:04.011Z,3.55
2022-10-24T02:20:40.570Z,4.15
2022-10-24T02:23:33.440Z,4.10
2022-10-24T02:26:05.099Z,3.80
2022-10-24T02:28:37.936Z,4.30
2022-10-24T02:31:20.747Z,3.53
2022-10-24T02:33:52.758Z,3.65
2022-10-24T02:36:25.892Z,4.30
2022-10-24T02:38:58.212Z,3.75
2022-10-24T02:41:33.573Z,3.73
2022-10-24T02:44:05.124Z,3.50
2022-10-24T02:46:35.740Z,3.17
2022-10-24T02:49:07.796Z,3.42
2022-10-24T02:51:40.478Z,3.13
2022-10-24T02:54:11.154Z,2.77
2022-10-24T02:56:44.150Z,3.95
2022-10-24T02:59:13.946Z,3.35
2022-10-24T03:01:43.828Z,3.10
2022-10-24T03:04:13.390Z,3.43
2022-10-24T03:06:43.487Z,4.33
2022-10-24T03:09:13.268Z,3.92
2022-10-24T03:11:43.583Z,3.87
2022-10-24T03:14:13.370Z,3.55
2022-10-24T03:16:43.290Z,3.40
2022-10-24T03:19:12.856Z,3.33
2022-10-24T03:21:42.658Z,3.60
2022-10-24T03:24:12.572Z,3.77
2022-10-24T03:26:42.346Z,3.57
2022-10-24T03:29:14.050Z,3.23
2022-10-24T03:31:43.825Z,3.77
2022-10-24T03:34:13.940Z,3.17
2022-10-24T03:36:43.783Z,3.77
2022-10-24T03:39:13.404Z,3.00
2022-10-24T03:41:43.210Z,3.27
2022-10-24T03:44:12.880Z,3.57
2022-10-24T03:46:42.795Z,3.13
2022-10-24T03:49:12.304Z,3.63
2022-10-24T03:51:42.154Z,3.37
2022-10-24T03:54:13.360Z,2.90
2022-10-24T03:56:45.392Z,3.00
2022-10-24T03:59:15.097Z,3.60
2022-10-24T04:01:45.224Z,3.30
2022-10-24T04:04:15.112Z,3.47
2022-10-24T04:06:45.092Z,3.83
2022-10-24T04:09:14.767Z,3.37
2022-10-24T04:11:44.550Z,2.63
2022-10-24T04:14:14.638Z,3.57
2022-10-24T04:16:44.550Z,3.50
2022-10-24T04:19:16.122Z,3.20
2022-10-24T04:24:14.949Z,3.30
2022-10-24T04:26:45.315Z,3.80
2022-10-24T04:29:15.309Z,4.40
2022-10-24T04:31:45.468Z,4.00
2022-10-24T04:34:15.042Z,3.50
2022-10-24T04:36:45.021Z,3.00
2022-10-24T04:39:14.844Z,3.33
2022-10-24T04:41:44.619Z,3.27
2022-10-24T04:44:14.423Z,3.33
2022-10-24T04:46:46.880Z,3.40
2022-10-24T04:49:15.609Z,2.77
2022-10-24T04:51:45.464Z,3.40
2022-10-24T04:54:14.971Z,3.43
2022-10-24T04:56:44.792Z,3.70
2022-10-24T04:59:14.353Z,3.07
2022-10-24T05:01:44.347Z,3.67
2022-10-24T05:04:14.168Z,2.42
2022-10-24T05:06:45.270Z,2.67
2022-10-24T05:09:15.509Z,3.92
2022-10-24T05:11:45.210Z,2.73
2022-10-24T05:14:15.096Z,3.07
2022-10-24T05:16:46.504Z,3.37
2022-10-24T05:19:17.270Z,3.40
2022-10-24T05:21:47.802Z,3.40
2022-10-24T05:24:17.681Z,2.95
2022-10-24T05:26:47.464Z,3.23
2022-10-24T05:29:16.946Z,2.93
2022-10-24T05:31:46.731Z,3.30
2022-10-24T05:34:16.519Z,3.17
2022-10-24T05:36:46.573Z,3.13
2022-10-24T05:39:16.151Z,3.00
2022-10-24T05:41:47.343Z,2.73
2022-10-24T05:44:17.448Z,3.17
2022-10-24T05:46:47.235Z,2.87
2022-10-24T05:49:16.739Z,3.27
2022-10-24T05:51:46.535Z,3.70
2022-10-24T05:54:16.386Z,3.27
2022-10-24T05:56:46.291Z,2.47
2022-10-24T05:59:16.133Z,3.10
2022-10-24T06:01:46.156Z,2.90
2022-10-24T06:04:15.822Z,3.53
2022-10-24T06:06:46.681Z,3.80
2022-10-24T06:11:45.042Z,2.75
2022-10-24T06:14:16.818Z,3.03
2022-10-24T06:16:46.679Z,2.67
2022-10-24T06:19:16.242Z,3.60
2022-10-24T06:21:46.372Z,3.47
2022-10-24T06:24:16.188Z,3.72
2022-10-24T06:26:46.193Z,3.60
2022-10-24T06:29:15.686Z,3.40
2022-10-24T06:31:45.452Z,3.57
2022-10-24T06:34:15.068Z,4.13
2022-10-24T06:36:45.118Z,3.73
2022-10-24T06:39:14.977Z,3.92
2022-10-24T06:41:44.759Z,3.67
2022-10-24T06:44:16.591Z,3.60
2022-10-24T06:46:46.641Z,4.47
2022-10-24T06:49:17.162Z,4.42
2022-10-24T06:51:46.651Z,6.47
2022-10-24T06:54:17.057Z,5.17
2022-10-24T06:56:46.657Z,6.13
2022-10-24T06:59:18.946Z,5.42
2022-10-24T07:01:48.856Z,5.63
2022-10-24T07:04:18.830Z,4.25
2022-10-24T07:06:48.687Z,3.97
2022-10-24T07:09:18.446Z,3.93
2022-10-24T07:11:48.255Z,3.63
2022-10-24T07:14:17.740Z,3.03
2022-10-24T07:16:47.537Z,3.07
2022-10-24T07:19:17.031Z,3.07
2022-10-24T07:21:46.821Z,2.47
2022-10-24T07:24:16.704Z,3.23
2022-10-24T07:26:46.469Z,2.00
2022-10-24T07:29:16.240Z,2.30
2022-10-24T07:31:48.729Z,1.80
2022-10-24T07:34:18.308Z,2.00
2022-10-24T07:36:48.087Z,2.73
2022-10-24T07:39:17.601Z,2.10
2022-10-24T07:41:47.386Z,2.00
2022-10-24T07:44:16.945Z,2.07
2022-10-24T07:46:46.776Z,1.70
2022-10-24T07:49:16.752Z,1.70
2022-10-24T07:51:46.541Z,1.47
2022-10-24T07:54:16.312Z,1.80
2022-10-24T07:56:46.110Z,1.97
2022-10-24T07:59:36.991Z,1.30
2022-10-24T08:01:47.313Z,2.03
2022-10-24T08:04:17.197Z,1.93
2022-10-24T08:06:46.982Z,1.60
2022-10-24T08:09:18.185Z,1.40
2022-10-24T08:11:47.968Z,1.60
2022-10-24T08:14:17.491Z,2.00
2022-10-24T08:16:47.277Z,1.77
2022-10-24T08:19:16.878Z,1.37
2022-10-24T08:21:46.632Z,1.70
2022-10-24T08:24:17.452Z,2.03
2022-10-24T08:26:47.465Z,1.32
2022-10-24T08:29:19.945Z,1.63
2022-10-24T08:31:54.753Z,1.33
2022-10-24T08:34:24.441Z,1.03
2022-10-24T08:36:54.571Z,1.13
2022-10-24T08:39:24.434Z,1.15
2022-10-24T08:42:09.196Z,1.67
2022-10-24T08:44:42.030Z,1.93
2022-10-24T08:50:15.896Z,1.03
2022-10-24T08:52:48.749Z,1.10
2022-10-24T08:55:43.909Z,1.30
2022-10-24T08:58:01.451Z,1.00
2022-10-24T09:00:36.536Z,0.90
2022-10-24T09:03:55.089Z,1.03
2022-10-24T09:06:04.866Z,0.80
2022-10-24T09:08:43.170Z,0.80
2022-10-24T09:11:25.181Z,0.90
2022-10-24T09:13:55.740Z,1.30
2022-10-24T09:18:56.626Z,0.80
2022-10-24T09:21:27.225Z,0.80
2022-10-24T09:23:57.127Z,0.90
2022-10-24T09:26:29.945Z,0.90
2022-10-24T09:28:59.876Z,0.93
2022-10-24T09:31:29.806Z,0.93
2022-10-24T09:34:01.840Z,0.87
2022-10-24T09:36:31.984Z,0.90
2022-10-24T09:39:10.890Z,0.60
2022-10-24T09:41:40.831Z,0.60
2022-10-24T09:44:13.683Z,0.70
2022-10-24T09:46:48.471Z,1.02
2022-10-24T09:49:24.193Z,0.70
2022-10-24T09:52:16.674Z,0.70
2022-10-24T09:54:47.478Z,0.70
2022-10-24T09:57:18.988Z,0.60
2022-10-24T10:00:00.597Z,0.70
2022-10-24T10:02:33.809Z,1.30
2022-10-24T10:05:10.713Z,0.83
2022-10-24T10:07:43.388Z,0.87
2022-10-24T10:10:32.304Z,1.00
2022-10-24T10:13:04.839Z,0.78
2022-10-24T10:15:46.842Z,0.60
2022-10-24T10:18:25.398Z,0.60
2022-10-24T10:21:07.469Z,1.00
2022-10-24T10:23:40.433Z,0.83
2022-10-24T10:26:16.333Z,0.93
2022-10-24T10:28:58.093Z,0.70
2022-10-24T10:31:32.233Z,0.70
2022-10-24T10:34:21.438Z,1.17
2022-10-24T10:37:12.381Z,0.90
2022-10-24T10:40:03.428Z,0.72
2022-10-24T10:42:59.260Z,0.72
2022-10-24T10:45:34.901Z,0.93
2022-10-24T10:48:26.402Z,0.60
2022-10-24T10:51:20.558Z,0.87
2022-10-24T10:54:11.815Z,1.03
2022-10-24T10:56:53.494Z,0.82
2022-10-24T10:59:44.024Z,1.27
2022-10-24T11:02:49.380Z,0.90
2022-10-24T11:05:44.718Z,1.17
2022-10-24T11:08:26.217Z,0.70
2022-10-24T11:13:41.002Z,0.85
2022-10-24T11:16:13.533Z,0.82
2022-10-24T11:18:46.364Z,0.70
2022-10-24T11:21:19.508Z,1.00
2022-10-24T11:23:52.049Z,1.40
2022-10-24T11:26:42.456Z,0.70
2022-10-24T11:29:27.142Z,0.90
2022-10-24T11:31:59.991Z,0.97
2022-10-24T11:34:49.502Z,0.87
2022-10-24T11:37:34.346Z,0.70
2022-10-24T11:40:10.305Z,0.83
2022-10-24T11:43:12.275Z,0.73
2022-10-24T11:46:03.168Z,1.20
2022-10-24T11:51:35.976Z,1.20
2022-10-24T11:54:21.555Z,1.00
2022-10-24T11:57:06.061Z,1.30
2022-10-24T11:59:39.663Z,0.77
2022-10-24T12:02:19.558Z,1.20
2022-10-24T12:05:09.895Z,0.80
2022-10-24T12:07:43.025Z,1.15
2022-10-24T12:10:40.133Z,1.60
2022-10-24T12:13:15.361Z,1.50
2022-10-24T12:16:21.287Z,1.20
2022-10-24T12:18:54.192Z,1.27
2022-10-24T12:21:29.639Z,1.03
2022-10-24T12:24:01.482Z,1.00
2022-10-24T12:26:33.549Z,1.30
2022-10-24T12:29:06.110Z,1.20
2022-10-24T12:31:38.376Z,0.87
2022-10-24T12:34:19.959Z,1.10
2022-10-24T12:37:11.966Z,1.40
2022-10-24T12:39:47.358Z,0.80
2022-10-24T12:42:21.950Z,1.50
2022-10-24T12:45:08.350Z,0.90
2022-10-24T12:47:47.037Z,1.13
2022-10-24T12:50:27.577Z,1.47
2022-10-24T12:53:03.529Z,1.02
2022-10-24T12:55:45.179Z,1.00
2022-10-24T12:58:32.991Z,0.97
2022-10-24T13:01:08.587Z,0.97
2022-10-24T13:03:53.618Z,0.80
2022-10-24T13:06:46.378Z,1.00
2022-10-24T13:09:30.982Z,0.80
2022-10-24T13:12:26.377Z,0.75
2022-10-24T13:15:19.054Z,0.97
2022-10-24T13:18:00.401Z,0.97
2022-10-24T13:20:35.765Z,1.20
2022-10-24T13:23:09.674Z,0.90
2022-10-24T13:25:40.520Z,1.13
2022-10-24T13:28:25.460Z,1.07
2022-10-24T13:31:03.706Z,1.00
2022-10-24T13:33:37.571Z,0.90
2022-10-24T13:36:16.677Z,1.17
2022-10-24T13:38:58.085Z,0.93
2022-10-24T13:41:43.179Z,0.87
2022-10-24T13:44:35.425Z,0.82
2022-10-24T13:47:18.202Z,1.20
2022-10-24T13:50:03.264Z,1.23
2022-10-24T13:52:42.109Z,1.33
2022-10-24T13:55:21.813Z,1.33
2022-10-24T13:58:03.816Z,1.77
2022-10-24T14:00:42.561Z,1.03
2022-10-24T14:03:25.928Z,1.03
2022-10-24T14:06:01.978Z,0.90
2022-10-24T14:08:40.927Z,1.10
2022-10-24T14:11:19.710Z,1.00
2022-10-24T14:13:53.415Z,1.10
2022-10-24T14:16:27.829Z,0.93
2022-10-24T14:19:17.732Z,1.63
2022-10-24T14:21:47.267Z,1.00
2022-10-24T14:24:22.942Z,1.65
2022-10-24T14:26:55.406Z,1.60
2022-10-24T14:29:34.094Z,1.40
2022-10-24T14:32:09.989Z,1.20
2022-10-24T14:34:41.248Z,1.63
2022-10-24T14:37:17.753Z,0.90
2022-10-24T14:39:47.696Z,1.37
2022-10-24T14:42:19.047Z,0.98
2022-10-24T14:45:09.499Z,1.57
2022-10-24T14:51:23.186Z,1.30
2022-10-24T14:53:53.379Z,1.40
2022-10-24T14:56:39.910Z,1.47
2022-10-24T14:59:24.580Z,1.30
2022-10-24T15:02:00.452Z,1.30
2022-10-24T15:04:33.353Z,1.87
2022-10-24T15:07:19.996Z,1.60
2022-10-24T15:09:55.354Z,0.93
2022-10-24T15:12:51.573Z,1.07
2022-10-24T15:15:33.219Z,1.70
2022-10-24T15:18:09.237Z,1.00
2022-10-24T15:20:41.446Z,1.53
2022-10-24T15:23:16.851Z,1.10
2022-10-24T15:25:47.621Z,1.30
2022-10-24T15:28:37.358Z,1.75
2022-10-24T15:31:12.230Z,1.73
2022-10-24T15:33:44.878Z,1.00
2022-10-24T15:36:20.934Z,2.00
2022-10-24T15:38:55.779Z,1.40
2022-10-24T15:41:28.561Z,1.50
2022-10-24T15:43:59.371Z,0.90
2022-10-24T15:46:30.426Z,1.37
2022-10-24T15:49:00.269Z,1.37
2022-10-24T15:51:32.342Z,1.73
2022-10-24T15:54:02.638Z,1.23
2022-10-24T15:56:32.425Z,1.23
2022-10-24T15:59:02.280Z,1.53
2022-10-24T16:01:38.474Z,1.40
2022-10-24T16:04:12.328Z,2.30
2022-10-24T16:06:42.456Z,1.60
2022-10-24T16:09:19.685Z,2.92
2022-10-24T16:11:51.482Z,2.00
2022-10-24T16:14:22.735Z,2.40
2022-10-24T16:16:56.938Z,1.53
2022-10-24T16:19:27.684Z,1.77
2022-10-24T16:21:58.745Z,2.20
2022-10-24T16:24:29.614Z,1.97
2022-10-24T16:26:59.516Z,1.92
2022-10-24T16:29:30.890Z,1.53
2022-10-24T16:32:00.679Z,1.70
2022-10-24T16:34:32.457Z,2.53
2022-10-24T16:37:04.965Z,1.77
2022-10-24T16:39:36.681Z,1.47
2022-10-24T16:42:07.392Z,2.00
2022-10-24T16:44:40.306Z,1.60
2022-10-24T16:47:10.798Z,1.70
2022-10-24T16:49:44.318Z,1.55
2022-10-24T16:52:15.063Z,1.82
2022-10-24T16:54:44.659Z,1.60
2022-10-24T16:57:20.857Z,1.32
2022-10-24T16:59:52.411Z,1.47
2022-10-24T17:02:22.224Z,1.60
2022-10-24T17:04:57.925Z,1.70
2022-10-24T17:07:27.803Z,2.33
2022-10-24T17:10:01.676Z,2.93
2022-10-24T17:12:31.715Z,3.23
2022-10-24T17:15:02.580Z,2.90
2022-10-24T17:17:37.844Z,2.67
2022-10-24T17:20:10.362Z,2.40
2022-10-24T17:22:44.782Z,2.00
2022-10-24T17:25:25.268Z,2.07
2022-10-24T17:27:55.825Z,2.77
2022-10-24T17:32:57.729Z,1.85
2022-10-24T17:35:30.602Z,1.90
2022-10-24T17:38:12.381Z,2.30
2022-10-24T17:40:45.232Z,1.90
2022-10-24T17:43:18.000Z,1.97
2022-10-24T17:46:05.263Z,2.17
2022-10-24T17:48:35.197Z,2.03
2022-10-24T17:51:06.067Z,2.30
2022-10-24T17:53:39.274Z,2.42
2022-10-24T17:56:10.157Z,2.53
2022-10-24T17:58:46.666Z,2.42
2022-10-24T18:01:16.588Z,2.70
2022-10-24T18:03:46.452Z,2.73
2022-10-24T18:06:16.994Z,2.97
2022-10-24T18:08:48.810Z,4.08
2022-10-24T18:11:20.631Z,4.97
2022-10-24T18:13:52.743Z,3.63
2022-10-24T18:16:30.932Z,2.97
2022-10-24T18:19:02.047Z,3.10
2022-10-24T18:24:01.416Z,3.10
2022-10-24T18:26:31.245Z,3.58
2022-10-24T18:29:01.597Z,3.40
2022-10-24T18:31:31.927Z,3.90
2022-10-24T18:34:08.547Z,2.70
2022-10-24T18:36:37.239Z,3.37
2022-10-24T18:39:08.001Z,3.73
2022-10-24T18:42:03.541Z,3.17
2022-10-24T18:44:37.763Z,2.60
2022-10-24T18:47:10.856Z,2.97
2022-10-24T18:49:41.174Z,3.73
2022-10-24T18:52:43.446Z,3.30
2022-10-24T18:55:24.317Z,3.00
2022-10-24T19:00:31.612Z,3.10
2022-10-24T19:03:31.230Z,2.73
2022-10-24T19:06:06.534Z,3.23
2022-10-24T19:08:36.585Z,2.87
2022-10-24T19:13:36.892Z,3.63
2022-10-24T19:16:06.921Z,4.13
2022-10-24T19:18:37.965Z,4.47
2022-10-24T19:21:07.601Z,4.55
2022-10-24T19:23:37.481Z,4.43
2022-10-24T19:26:07.352Z,3.80
2022-10-24T19:28:37.160Z,3.20
2022-10-24T19:31:08.552Z,2.73
2022-10-24T19:33:38.823Z,3.58
2022-10-24T19:36:09.602Z,3.90
2022-10-24T19:38:39.403Z,3.85
2022-10-24T19:41:11.338Z,3.67
2022-10-24T19:43:41.120Z,3.63
2022-10-24T19:46:30.482Z,3.87
2022-10-24T19:49:01.201Z,4.47
2022-10-24T19:57:31.913Z,4.73
2022-10-24T20:00:01.710Z,3.95
2022-10-24T20:02:34.389Z,4.40
2022-10-24T20:05:04.265Z,5.47
2022-10-24T20:07:34.079Z,4.20
2022-10-24T20:10:03.977Z,4.07
2022-10-24T20:12:33.727Z,4.97
2022-10-24T20:15:03.517Z,3.60
2022-10-24T20:17:34.272Z,3.63
2022-10-24T20:20:05.406Z,3.90
2022-10-24T20:22:34.931Z,3.47
2022-10-24T20:25:08.106Z,3.90
2022-10-24T20:27:39.724Z,3.30
2022-10-24T20:30:10.234Z,3.10
2022-10-24T20:32:40.050Z,2.85
2022-10-24T20:35:10.749Z,3.43
2022-10-24T20:37:41.475Z,3.00
2022-10-24T20:40:13.293Z,2.42
2022-10-24T20:42:43.372Z,3.17
2022-10-24T20:45:13.019Z,2.97
2022-10-24T20:47:42.820Z,2.97
2022-10-24T20:50:13.968Z,2.97
2022-10-24T20:52:44.007Z,3.27
2022-10-24T20:55:25.385Z,2.73
2022-10-24T20:57:47.562Z,2.47
2022-10-24T21:00:17.392Z,2.53
2022-10-24T21:02:47.549Z,2.60
2022-10-24T21:05:17.791Z,2.20
2022-10-24T21:07:50.048Z,2.30
2022-10-24T21:10:20.090Z,1.87
2022-10-24T21:12:50.400Z,2.03
2022-10-24T21:15:20.905Z,1.92
2022-10-24T21:17:51.976Z,2.00
2022-10-24T21:20:21.779Z,2.27
2022-10-24T21:22:51.894Z,2.62
2022-10-24T21:25:21.602Z,2.70
2022-10-24T21:27:52.488Z,2.97
2022-10-24T21:30:22.443Z,2.50
2022-10-24T21:32:52.609Z,2.15
2022-10-24T21:35:22.418Z,1.97
2022-10-24T21:37:52.235Z,1.77
2022-10-24T21:40:22.969Z,1.13
2022-10-24T21:42:57.417Z,2.00
2022-10-24T21:45:27.233Z,1.47
2022-10-24T21:47:57.045Z,1.67
2022-10-24T21:50:26.904Z,1.37
2022-10-24T21:52:56.702Z,1.30
2022-10-24T21:55:26.519Z,1.00
2022-10-24T21:57:56.616Z,1.10
2022-10-24T22:00:27.403Z,1.37
2022-10-24T22:02:57.280Z,1.42
2022-10-24T22:05:27.219Z,1.33
2022-10-24T22:07:57.039Z,1.77
2022-10-24T22:10:26.905Z,1.30
2022-10-24T22:12:56.658Z,0.87
2022-10-24T22:15:26.543Z,1.60
2022-10-24T22:17:56.429Z,1.00
2022-10-24T22:20:26.220Z,1.17
2022-10-24T22:22:56.022Z,1.03
2022-10-24T22:25:26.184Z,1.40
2022-10-24T22:27:55.748Z,1.43
2022-10-24T22:30:25.590Z,1.60
2022-10-24T22:32:56.601Z,1.10
2022-10-24T22:37:55.852Z,1.10
2022-10-24T22:40:28.598Z,1.13
2022-10-24T22:42:59.018Z,1.10
2022-10-24T22:45:29.194Z,1.00
2022-10-24T22:48:11.205Z,1.40
2022-10-24T22:50:55.686Z,0.87
2022-10-24T22:53:28.062Z,1.35
2022-10-24T22:56:19.963Z,0.97
2022-10-24T23:01:36.860Z,1.77
2022-10-24T23:04:22.086Z,1.00
2022-10-24T23:07:01.019Z,0.93
2022-10-24T23:09:31.586Z,0.97
2022-10-24T23:12:01.341Z,0.90
2022-10-24T23:14:31.392Z,1.20
2022-10-24T23:17:01.798Z,1.10
2022-10-24T23:19:34.233Z,0.90
2022-10-24T23:22:25.268Z,1.30
2022-10-24T23:24:57.722Z,0.82
2022-10-24T23:27:42.294Z,0.77
2022-10-24T23:30:24.052Z,0.95
2022-10-24T23:32:54.496Z,0.93
2022-10-24T23:35:24.322Z,1.20
2022-10-24T23:37:54.851Z,1.00
2022-10-24T23:40:36.454Z,1.10
2022-10-24T23:43:08.946Z,0.93
2022-10-24T23:45:41.816Z,0.93
2022-10-24T23:48:23.326Z,1.03
2022-10-24T23:50:58.761Z,1.23
2022-10-24T23:53:43.929Z,0.80
2022-10-24T23:56:13.961Z,0.60
2022-10-24T23:58:43.759Z,0.93
